Time;durP1;ratioP1;P1;durP2;ratioP2;P2;SDS_P1;SDS_P2;PMS_P1;PMS_P2;Temp;Humidity;BMP_temperature;BMP_pressure;BME280_temperature;BME280_humidity;BME280_pressure;Samples;Min_cycle;Max_cycle;Signal;HPM_P1;HPM_P2
2023/07/11 00:00:15;;;;;;;5.77;2.37;;;16.60;99.90;;;;;;5014260;28;20301;-60
2023/07/11 00:02:44;;;;;;;3.40;2.40;;;16.70;99.90;;;;;;5023315;28;20747;-49
2023/07/11 00:05:13;;;;;;;2.63;2.13;;;16.80;99.90;;;;;;5021191;28;20231;-59
2023/07/11 00:07:40;;;;;;;3.13;2.43;;;16.80;99.90;;;;;;5000142;28;20239;-51
2023/07/11 00:10:08;;;;;;;4.40;2.53;;;16.70;99.90;;;;;;5015467;28;20234;-60
2023/07/11 00:12:35;;;;;;;6.67;2.60;;;16.70;99.90;;;;;;5021332;28;20235;-48
2023/07/11 00:15:02;;;;;;;4.20;3.13;;;16.60;99.90;;;;;;5022922;28;20266;-58
2023/07/11 00:17:29;;;;;;;5.73;2.77;;;16.60;99.90;;;;;;5013386;28;20191;-50
2023/07/11 00:19:59;;;;;;;5.13;2.43;;;16.60;99.90;;;;;;5022041;28;20196;-50
2023/07/11 00:22:29;;;;;;;6.23;3.17;;;16.60;99.90;;;;;;4992547;28;20230;-49
2023/07/11 00:24:55;;;;;;;3.43;2.60;;;16.60;99.90;;;;;;5021708;28;20234;-53
2023/07/11 00:27:23;;;;;;;5.30;2.50;;;;;;;;;;5018413;28;20254;-47
2023/07/11 00:29:54;;;;;;;5.03;2.47;;;;;;;;;;5022996;28;20697;-52
2023/07/11 00:32:25;;;;;;;3.23;2.67;;;;;;;;;;5009623;28;20321;-55
2023/07/11 00:34:53;;;;;;;5.20;2.27;;;;;;;;;;5019045;28;20226;-47
2023/07/11 00:37:21;;;;;;;4.60;2.80;;;;;;;;;;4998227;28;20208;-60
2023/07/11 00:39:48;;;;;;;4.77;2.60;;;16.30;99.90;;;;;;5019997;28;20195;-51
2023/07/11 00:42:15;;;;;;;3.67;3.30;;;16.30;99.90;;;;;;5018205;28;20211;-59
2023/07/11 00:44:54;;;;;;;3.10;2.10;;;16.20;99.90;;;;;;5019710;28;20216;-51
2023/07/11 00:47:22;;;;;;;5.03;2.67;;;16.20;99.90;;;;;;5008664;28;20203;-46
2023/07/11 00:49:52;;;;;;;3.47;2.30;;;16.20;99.90;;;;;;5022868;28;20811;-47
2023/07/11 00:52:21;;;;;;;3.60;2.63;;;16.10;99.90;;;;;;5017725;28;20293;-57
2023/07/11 00:54:52;;;;;;;4.40;2.33;;;16.00;99.90;;;;;;5001831;28;20234;-52
2023/07/11 00:57:20;;;;;;;5.53;2.40;;;16.10;99.90;;;;;;5011183;28;20261;-58
2023/07/11 00:59:48;;;;;;;5.93;2.90;;;16.20;99.90;;;;;;5020965;28;20279;-50
2023/07/11 01:02:20;;;;;;;5.53;2.67;;;16.30;99.90;;;;;;5013673;28;20215;-59
2023/07/11 01:04:47;;;;;;;4.63;2.50;;;16.30;99.90;;;;;;5022280;28;20220;-49
2023/07/11 01:07:17;;;;;;;6.63;2.40;;;16.20;99.90;;;;;;5017776;28;20196;-63
2023/07/11 01:09:46;;;;;;;3.13;2.47;;;16.20;99.90;;;;;;4991741;28;20207;-45
2023/07/11 01:12:15;;;;;;;3.70;2.13;;;16.10;99.90;;;;;;5019503;28;20278;-59
2023/07/11 01:14:43;;;;;;;6.67;3.00;;;16.20;99.90;;;;;;5019840;28;20215;-45
2023/07/11 01:17:28;;;;;;;2.57;2.20;;;16.20;99.90;;;;;;5019794;28;20204;-61
2023/07/11 01:19:56;;;;;;;3.13;2.60;;;16.20;99.90;;;;;;5018088;28;20278;-59
2023/07/11 01:22:27;;;;;;;3.03;2.70;;;16.10;99.90;;;;;;5013935;28;20172;-51
2023/07/11 01:24:56;;;;;;;3.63;2.80;;;16.00;99.90;;;;;;5001105;28;20305;-49
2023/07/11 01:27:23;;;;;;;4.53;2.70;;;16.00;99.90;;;;;;5017299;28;20196;-54
2023/07/11 01:29:51;;;;;;;6.23;2.27;;;16.10;99.90;;;;;;5016891;28;20208;-49
2023/07/11 01:32:18;;;;;;;3.30;2.53;;;16.10;99.90;;;;;;5015262;28;20219;-62
2023/07/11 01:34:45;;;;;;;3.90;2.43;;;16.10;99.90;;;;;;5017550;28;20699;-50
2023/07/11 01:37:12;;;;;;;6.70;2.60;;;16.10;99.90;;;;;;5019691;28;20223;-60
2023/07/11 01:39:40;;;;;;;4.90;2.60;;;16.00;99.90;;;;;;5000290;28;20298;-46
2023/07/11 01:42:07;;;;;;;4.03;2.00;;;15.90;99.90;;;;;;5019013;28;20204;-60
2023/07/11 01:44:37;;;;;;;4.80;2.33;;;15.80;99.90;;;;;;5012941;28;20220;-57
2023/07/11 01:47:05;;;;;;;3.40;2.60;;;15.80;99.90;;;;;;5018904;28;20221;-60
2023/07/11 01:49:32;;;;;;;4.93;2.57;;;15.80;99.90;;;;;;5022218;28;20242;-51
2023/07/11 01:52:07;;;;;;;3.10;2.60;;;15.70;99.90;;;;;;5025775;28;20270;-50
2023/07/11 01:54:33;;;;;;;6.27;2.80;;;15.80;99.90;;;;;;5012978;28;20274;-55
2023/07/11 01:57:02;;;;;;;3.40;2.40;;;15.80;99.90;;;;;;4998859;28;20216;-60
2023/07/11 01:59:29;;;;;;;6.63;2.73;;;15.90;99.90;;;;;;5018468;28;20270;-49
2023/07/11 02:01:56;;;;;;;5.77;2.63;;;15.80;99.90;;;;;;5023937;28;20188;-47
2023/07/11 02:04:24;;;;;;;5.53;2.50;;;15.80;99.90;;;;;;5020771;28;21002;-52
2023/07/11 02:06:52;;;;;;;2.90;2.20;;;15.80;99.90;;;;;;5019972;28;20188;-49
2023/07/11 02:09:20;;;;;;;4.10;2.90;;;15.80;99.90;;;;;;5015351;28;20252;-59
2023/07/11 02:11:47;;;;;;;4.83;2.73;;;15.80;99.90;;;;;;5004670;28;20254;-55
2023/07/11 02:14:18;;;;;;;3.40;2.57;;;15.80;99.90;;;;;;5021149;28;20231;-58
2023/07/11 02:16:46;;;;;;;2.90;2.60;;;15.80;99.90;;;;;;5023634;28;20200;-54
2023/07/11 02:19:13;;;;;;;5.40;2.27;;;15.80;99.90;;;;;;5021941;28;20262;-58
2023/07/11 02:21:41;;;;;;;4.43;2.70;;;15.70;99.90;;;;;;5018212;28;20890;-49
2023/07/11 02:24:09;;;;;;;4.27;2.27;;;15.60;99.90;;;;;;5021092;28;20216;-58
2023/07/11 02:26:37;;;;;;;4.87;2.83;;;15.50;99.90;;;;;;5023689;28;20206;-48
2023/07/11 02:29:04;;;;;;;3.87;2.20;;;15.50;99.90;;;;;;5002287;28;20223;-60
2023/07/11 02:31:35;;;;;;;4.97;2.70;;;15.60;99.90;;;;;;5020915;28;20278;-57
2023/07/11 02:34:03;;;;;;;3.00;2.30;;;15.50;99.90;;;;;;5017503;28;20638;-57
2023/07/11 02:36:30;;;;;;;2.83;2.40;;;15.50;99.90;;;;;;5022254;28;21020;-50
2023/07/11 02:38:57;;;;;;;4.43;2.53;;;15.50;99.90;;;;;;5021579;28;20192;-54
2023/07/11 02:41:25;;;;;;;4.43;2.50;;;15.50;99.90;;;;;;5017108;28;20188;-49
2023/07/11 02:43:52;;;;;;;5.23;3.00;;;15.50;99.90;;;;;;5001204;28;20232;-54
2023/07/11 02:46:19;;;;;;;4.60;2.60;;;15.60;99.90;;;;;;5017187;28;20203;-50
2023/07/11 02:48:47;;;;;;;4.60;2.87;;;15.60;99.90;;;;;;5024742;28;20278;-47
2023/07/11 02:51:14;;;;;;;2.80;2.47;;;15.60;99.90;;;;;;5021684;28;20220;-59
2023/07/11 02:53:41;;;;;;;4.33;2.43;;;15.50;99.90;;;;;;5023950;28;20231;-50
2023/07/11 02:56:07;;;;;;;5.37;2.83;;;15.50;99.90;;;;;;5019497;28;20200;-58
2023/07/11 02:58:34;;;;;;;6.53;2.83;;;15.50;99.90;;;;;;4999752;28;20299;-55
2023/07/11 03:01:03;;;;;;;3.30;2.80;;;15.60;99.90;;;;;;5022821;28;20551;-58
2023/07/11 03:03:30;;;;;;;3.17;2.70;;;15.50;99.90;;;;;;5021707;28;20215;-48
2023/07/11 03:05:59;;;;;;;6.43;3.23;;;15.50;99.90;;;;;;5024409;28;20228;-45
2023/07/11 03:08:26;;;;;;;4.07;2.70;;;15.40;99.90;;;;;;5016305;28;20885;-56
2023/07/11 03:10:53;;;;;;;7.57;3.27;;;15.50;99.90;;;;;;5022896;28;20258;-50
2023/07/11 03:13:20;;;;;;;4.37;3.17;;;15.40;99.90;;;;;;5019497;28;20920;-50
2023/07/11 03:15:47;;;;;;;3.93;2.50;;;15.40;99.90;;;;;;5004091;28;20223;-50
2023/07/11 03:18:14;;;;;;;5.63;3.20;;;15.40;99.90;;;;;;5020601;28;20215;-58
2023/07/11 03:20:43;;;;;;;5.00;2.70;;;15.40;99.90;;;;;;5018134;28;20896;-51
2023/07/11 03:23:13;;;;;;;6.33;3.17;;;15.40;99.90;;;;;;5021660;28;20224;-54
2023/07/11 03:25:41;;;;;;;5.80;2.93;;;15.40;99.90;;;;;;5023300;28;20228;-47
2023/07/11 03:28:08;;;;;;;4.63;3.00;;;15.30;99.90;;;;;;5021484;28;20726;-57
2023/07/11 03:30:36;;;;;;;4.70;3.00;;;15.30;99.90;;;;;;5003432;28;24558;-46
2023/07/11 03:33:04;;;;;;;5.87;2.90;;;15.30;99.90;;;;;;5016826;28;20211;-57
2023/07/11 03:35:31;;;;;;;4.70;2.90;;;15.30;99.90;;;;;;5021335;28;20235;-46
2023/07/11 03:37:58;;;;;;;5.07;2.90;;;15.30;99.90;;;;;;5024074;28;20683;-55
2023/07/11 03:40:28;;;;;;;6.13;3.10;;;15.30;99.90;;;;;;5016757;28;20809;-49
2023/07/11 03:42:55;;;;;;;3.93;3.03;;;15.40;99.90;;;;;;5022801;28;20267;-57
2023/07/11 03:45:22;;;;;;;5.70;3.10;;;15.30;99.90;;;;;;5015119;28;20266;-53
2023/07/11 03:47:49;;;;;;;4.13;2.43;;;15.30;99.90;;;;;;5003945;28;20310;-48
2023/07/11 03:50:16;;;;;;;6.07;2.87;;;15.40;99.90;;;;;;5020334;28;20310;-59
2023/07/11 03:52:43;;;;;;;3.47;3.17;;;15.30;99.90;;;;;;5023489;28;20208;-46
2023/07/11 03:55:10;;;;;;;4.80;2.60;;;15.30;99.90;;;;;;5019520;28;20294;-60
2023/07/11 03:57:39;;;;;;;6.37;3.30;;;15.40;99.90;;;;;;5015825;28;20200;-47
2023/07/11 04:00:07;;;;;;;5.30;3.27;;;15.40;99.90;;;;;;5025028;28;20196;-57
2023/07/11 04:02:39;;;;;;;10.17;3.27;;;15.40;99.90;;;;;;5002605;28;20216;-52
2023/07/11 04:05:07;;;;;;;4.93;2.70;;;15.40;99.90;;;;;;5021963;28;20204;-58
2023/07/11 04:07:34;;;;;;;6.43;3.13;;;15.50;99.90;;;;;;5013980;28;20211;-49
2023/07/11 04:10:00;;;;;;;4.47;3.03;;;15.50;99.90;;;;;;5027409;28;20200;-57
2023/07/11 04:12:26;;;;;;;7.87;3.10;;;15.60;99.90;;;;;;5021799;28;20379;-50
2023/07/11 04:14:54;;;;;;;4.50;2.67;;;15.60;99.90;;;;;;5030944;28;20347;-51
2023/07/11 04:17:21;;;;;;;5.47;2.93;;;15.60;99.90;;;;;;5019061;28;20192;-52
2023/07/11 04:19:49;;;;;;;5.20;3.03;;;15.70;99.90;;;;;;4993615;28;20291;-58
2023/07/11 04:22:16;;;;;;;6.27;2.80;;;15.70;99.90;;;;;;5019102;28;20983;-48
2023/07/11 04:24:44;;;;;;;7.40;3.00;;;15.80;99.90;;;;;;5016733;28;20220;-59
2023/07/11 04:27:10;;;;;;;5.23;2.80;;;15.80;99.90;;;;;;5014810;28;20212;-46
2023/07/11 04:29:37;;;;;;;4.73;2.53;;;15.90;99.90;;;;;;5019618;28;20568;-48
2023/07/11 04:32:07;;;;;;;9.50;2.43;;;16.00;99.90;;;;;;5013663;28;20187;-53
2023/07/11 04:34:34;;;;;;;4.63;2.80;;;16.00;99.90;;;;;;5003029;28;20216;-48
2023/07/11 04:37:01;;;;;;;8.20;3.03;;;16.00;99.90;;;;;;5018672;28;20254;-50
2023/07/11 04:39:27;;;;;;;7.47;2.50;;;16.10;99.90;;;;;;5021811;28;20867;-47
2023/07/11 04:41:54;;;;;;;7.17;3.17;;;16.10;99.90;;;;;;5013407;28;20342;-58
2023/07/11 04:44:21;;;;;;;4.83;2.50;;;16.20;99.90;;;;;;5002082;28;20219;-57
2023/07/11 04:46:48;;;;;;;4.30;2.53;;;16.20;99.90;;;;;;5021017;28;20200;-54
2023/07/11 04:49:16;;;;;;;5.13;2.67;;;16.30;99.90;;;;;;4990841;28;20270;-59
2023/07/11 04:51:43;;;;;;;4.23;2.60;;;16.30;99.90;;;;;;5020491;28;21022;-47
2023/07/11 04:54:10;;;;;;;7.63;2.37;;;16.40;99.90;;;;;;5021295;28;20661;-58
2023/07/11 04:56:40;;;;;;;6.80;2.47;;;16.40;99.90;;;;;;5005882;28;20369;-48
2023/07/11 04:59:06;;;;;;;5.23;2.63;;;16.40;99.90;;;;;;5022476;28;20224;-51
2023/07/11 05:01:33;;;;;;;8.53;2.63;;;16.50;99.90;;;;;;5017371;28;20934;-48
2023/07/11 05:04:00;;;;;;;5.37;2.17;;;16.50;99.90;;;;;;4996557;28;20686;-49
2023/07/11 05:06:28;;;;;;;4.87;2.63;;;16.60;99.90;;;;;;5012191;28;20620;-53
2023/07/11 05:08:55;;;;;;;6.23;2.53;;;16.60;99.90;;;;;;5012759;28;20692;-50
2023/07/11 05:11:22;;;;;;;7.50;2.87;;;16.70;99.90;;;;;;5014179;28;20771;-55
2023/07/11 05:13:51;;;;;;;9.20;2.87;;;16.80;99.90;;;;;;5019513;28;20274;-57
2023/07/11 05:16:19;;;;;;;5.50;2.80;;;16.80;99.90;;;;;;5016761;28;20200;-50
2023/07/11 05:18:48;;;;;;;3.27;2.27;;;16.90;99.90;;;;;;5007441;28;20204;-55
2023/07/11 05:21:17;;;;;;;4.50;2.50;;;17.00;99.90;;;;;;4996692;28;20235;-52
2023/07/11 05:23:46;;;;;;;6.67;2.73;;;17.10;99.90;;;;;;5020001;28;20889;-53
2023/07/11 05:26:14;;;;;;;7.80;2.87;;;17.10;99.90;;;;;;5025081;28;20203;-56
2023/07/11 05:28:41;;;;;;;3.90;2.50;;;17.20;99.90;;;;;;5019620;28;20195;-48
2023/07/11 05:31:08;;;;;;;6.37;2.70;;;17.30;99.90;;;;;;5014939;28;20184;-49
2023/07/11 05:33:35;;;;;;;4.67;2.53;;;17.30;99.90;;;;;;5020366;28;20207;-47
2023/07/11 05:36:13;;;;;;;6.77;3.00;;;17.40;99.90;;;;;;5005408;28;20219;-53
2023/07/11 05:38:40;;;;;;;6.30;2.67;;;17.50;99.90;;;;;;5022403;28;20893;-55
2023/07/11 05:41:08;;;;;;;5.57;2.60;;;17.60;99.90;;;;;;5024831;28;20250;-55
2023/07/11 05:43:36;;;;;;;4.83;2.43;;;17.70;99.90;;;;;;5011994;28;20835;-56
2023/07/11 05:46:02;;;;;;;7.93;2.60;;;17.80;99.90;;;;;;5023801;28;20215;-54
2023/07/11 05:48:29;;;;;;;5.60;2.20;;;17.80;99.90;;;;;;5020992;28;20208;-57
2023/07/11 05:51:00;;;;;;;5.47;2.60;;;17.90;99.90;;;;;;5005565;28;20199;-57
2023/07/11 05:53:28;;;;;;;5.17;2.23;;;18.00;99.90;;;;;;5021282;28;20893;-55
2023/07/11 05:55:56;;;;;;;4.13;1.90;;;18.10;99.90;;;;;;5011726;28;20582;-55
2023/07/11 05:58:24;;;;;;;3.87;2.30;;;18.20;99.90;;;;;;5016333;28;20196;-54
2023/07/11 06:00:52;;;;;;;2.57;2.10;;;18.30;99.90;;;;;;5025669;28;20199;-57
2023/07/11 06:03:19;;;;;;;4.67;2.07;;;18.40;99.90;;;;;;5023257;28;20220;-54
2023/07/11 06:05:46;;;;;;;4.53;2.20;;;18.50;99.90;;;;;;5005012;28;20447;-55
2023/07/11 06:08:13;;;;;;;3.10;2.20;;;18.60;99.90;;;;;;5015418;28;20897;-56
2023/07/11 06:10:40;;;;;;;5.87;2.00;;;18.70;99.90;;;;;;5023247;28;20655;-49
2023/07/11 06:13:07;;;;;;;4.47;2.03;;;18.80;99.90;;;;;;5021952;28;20223;-59
2023/07/11 06:15:36;;;;;;;4.00;1.90;;;18.90;99.90;;;;;;5025669;28;20226;-58
2023/07/11 06:18:03;;;;;;;4.20;2.40;;;19.00;99.90;;;;;;5021139;28;20241;-54
2023/07/11 06:20:30;;;;;;;3.00;1.67;;;19.10;99.90;;;;;;5020045;28;20681;-55
2023/07/11 06:22:57;;;;;;;4.03;1.97;;;19.20;99.90;;;;;;5003213;28;20196;-58
2023/07/11 06:25:25;;;;;;;3.43;1.67;;;19.30;99.90;;;;;;5025140;28;20266;-55
2023/07/11 06:27:51;;;;;;;2.87;1.97;;;19.40;99.90;;;;;;5022583;28;20203;-50
2023/07/11 06:30:18;;;;;;;9.67;2.13;;;19.40;99.90;;;;;;5023790;28;20804;-55
2023/07/11 06:32:47;;;;;;;5.10;1.90;;;;;;;;;;5016204;28;20242;-51
2023/07/11 06:35:14;;;;;;;3.43;1.77;;;19.60;99.90;;;;;;5024003;28;20216;-54
2023/07/11 06:37:40;;;;;;;3.63;1.87;;;19.70;99.90;;;;;;4997389;28;20258;-54
2023/07/11 06:40:09;;;;;;;5.17;1.77;;;19.70;99.90;;;;;;5021360;28;20331;-54
2023/07/11 06:42:36;;;;;;;3.27;1.70;;;19.80;99.90;;;;;;5002120;28;20200;-55
2023/07/11 06:45:02;;;;;;;4.73;1.80;;;19.80;99.90;;;;;;5009796;28;20281;-51
2023/07/11 06:47:29;;;;;;;5.10;1.93;;;19.90;99.90;;;;;;5010781;28;20203;-58
2023/07/11 06:49:57;;;;;;;5.73;1.60;;;20.00;99.90;;;;;;4999545;28;20261;-58
2023/07/11 06:52:25;;;;;;;2.30;1.53;;;20.20;99.90;;;;;;5014394;28;20192;-54
2023/07/11 06:54:52;;;;;;;3.40;1.70;;;20.30;99.90;;;;;;4990881;28;20228;-50
2023/07/11 06:57:19;;;;;;;2.83;1.87;;;20.30;99.90;;;;;;5016066;28;20838;-59
2023/07/11 06:59:48;;;;;;;5.03;2.30;;;20.40;99.90;;;;;;5022989;28;20188;-52
2023/07/11 07:02:15;;;;;;;2.90;1.77;;;20.60;99.90;;;;;;5018150;28;20208;-56
2023/07/11 07:04:43;;;;;;;5.30;1.57;;;20.70;99.90;;;;;;5023363;28;20224;-48
2023/07/11 07:07:15;;;;;;;6.47;1.80;;;20.70;99.90;;;;;;5021689;28;20369;-54
2023/07/11 07:09:43;;;;;;;2.60;1.50;;;20.80;99.90;;;;;;4999230;28;20279;-51
2023/07/11 07:12:10;;;;;;;3.83;1.70;;;20.80;99.90;;;;;;5016486;28;20212;-56
2023/07/11 07:14:38;;;;;;;5.20;1.80;;;20.90;99.90;;;;;;5031010;28;20227;-50
2023/07/11 07:17:05;;;;;;;2.43;1.80;;;21.00;99.90;;;;;;5034303;28;20184;-57
2023/07/11 07:19:32;;;;;;;6.37;2.77;;;21.10;99.90;;;;;;5012022;28;20200;-52
2023/07/11 07:21:59;;;;;;;4.50;1.70;;;21.20;99.90;;;;;;5016751;28;20192;-59
2023/07/11 07:24:28;;;;;;;2.93;1.60;;;21.20;99.90;;;;;;5002821;28;20718;-48
2023/07/11 07:26:55;;;;;;;3.10;1.60;;;21.30;99.90;;;;;;5028465;28;20861;-58
2023/07/11 07:29:24;;;;;;;3.47;1.63;;;21.40;99.90;;;;;;5017877;28;20207;-56
2023/07/11 07:31:52;;;;;;;4.33;2.30;;;21.50;99.90;;;;;;5009206;28;20285;-53
2023/07/11 07:34:19;;;;;;;3.13;2.03;;;21.50;99.90;;;;;;5012751;28;20219;-55
2023/07/11 07:36:46;;;;;;;3.07;1.63;;;21.60;99.90;;;;;;5011314;28;20935;-55
2023/07/11 07:39:13;;;;;;;3.27;1.70;;;21.70;99.90;;;;;;5027984;28;20200;-56
2023/07/11 07:41:42;;;;;;;3.77;1.90;;;21.70;99.90;;;;;;4992560;28;20287;-51
2023/07/11 07:44:09;;;;;;;2.63;1.57;;;21.70;99.90;;;;;;5004766;28;20585;-57
2023/07/11 07:46:36;;;;;;;3.03;1.60;;;21.80;99.90;;;;;;5012837;28;20282;-50
2023/07/11 07:49:03;;;;;;;1.97;1.23;;;21.90;99.90;;;;;;5016420;28;20224;-57
2023/07/11 07:51:30;;;;;;;3.30;1.63;;;22.00;99.90;;;;;;5023104;28;20246;-49
2023/07/11 07:53:57;;;;;;;3.00;1.57;;;22.00;99.90;;;;;;5011206;28;20321;-51
2023/07/11 07:56:25;;;;;;;1.80;1.70;;;22.10;99.90;;;;;;4992972;28;20341;-51
2023/07/11 07:58:53;;;;;;;3.17;1.73;;;22.10;99.90;;;;;;5024211;28;20216;-56
2023/07/11 08:01:21;;;;;;;4.60;1.70;;;22.20;99.90;;;;;;5017757;28;20200;-57
2023/07/11 08:03:48;;;;;;;1.80;1.70;;;22.20;99.90;;;;;;5011767;28;20271;-57
2023/07/11 08:06:17;;;;;;;2.77;2.07;;;22.30;99.90;;;;;;5002222;28;20200;-47
2023/07/11 08:08:44;;;;;;;2.38;1.58;;;22.50;99.90;;;;;;5011006;28;20281;-52
2023/07/11 08:11:11;;;;;;;5.43;1.95;;;22.50;99.90;;;;;;4994893;28;20586;-48
2023/07/11 08:13:40;;;;;;;4.30;1.70;;;;;;;;;;5020366;28;20199;-51
2023/07/11 08:16:08;;;;;;;2.40;1.75;;;22.70;99.90;;;;;;5017147;28;20278;-48
2023/07/11 08:18:35;;;;;;;2.25;1.90;;;22.90;99.90;;;;;;5008978;28;20358;-52
2023/07/11 08:21:02;;;;;;;3.88;1.63;;;23.00;99.90;;;;;;5015570;28;20559;-54
2023/07/11 08:23:29;;;;;;;4.03;1.35;;;23.00;99.90;;;;;;5013419;28;20313;-53
2023/07/11 08:25:56;;;;;;;2.15;1.40;;;23.10;99.90;;;;;;5018071;28;20763;-52
2023/07/11 08:28:24;;;;;;;3.08;1.63;;;23.20;99.90;;;;;;5002000;28;20208;-58
2023/07/11 08:30:50;;;;;;;1.92;1.50;;;23.30;99.90;;;;;;5010116;28;20218;-57
2023/07/11 08:33:19;;;;;;;2.88;2.17;;;23.30;99.90;;;;;;5009946;28;20304;-53
2023/07/11 08:35:45;;;;;;;7.03;2.17;;;23.40;99.90;;;;;;5016183;28;20706;-58
2023/07/11 08:38:12;;;;;;;2.47;1.80;;;23.50;99.90;;;;;;5020548;28;20234;-50
2023/07/11 08:40:43;;;;;;;3.10;1.50;;;23.40;99.90;;;;;;5015645;28;20626;-57
2023/07/11 08:43:14;;;;;;;3.00;1.58;;;23.60;99.90;;;;;;4992436;28;20665;-53
2023/07/11 08:45:49;;;;;;;4.70;1.70;;;23.70;99.90;;;;;;5014402;28;20307;-57
2023/07/11 08:48:21;;;;;;;2.00;1.77;;;23.80;99.90;;;;;;5004892;28;20268;-49
2023/07/11 08:51:00;;;;;;;4.30;1.90;;;24.00;99.90;;;;;;5024922;28;20613;-58
2023/07/11 08:53:32;;;;;;;2.40;1.30;;;24.10;99.90;;;;;;5011879;28;20393;-53
2023/07/11 08:56:08;;;;;;;3.15;1.75;;;24.20;99.90;;;;;;5010324;28;20220;-56
2023/07/11 08:58:37;;;;;;;4.18;1.55;;;24.30;99.90;;;;;;4996993;28;20298;-56
2023/07/11 09:01:27;;;;;;;3.05;1.45;;;24.30;99.90;;;;;;5017450;28;20672;-53
2023/07/11 09:03:57;;;;;;;3.28;1.52;;;24.40;99.90;;;;;;5006548;28;20223;-57
2023/07/11 09:06:32;;;;;;;4.55;1.77;;;24.60;99.90;;;;;;5012311;28;20257;-54
2023/07/11 09:09:00;;;;;;;3.85;1.83;;;24.60;99.90;;;;;;5014241;28;20207;-51
2023/07/11 09:11:44;;;;;;;5.15;1.85;;;24.70;99.90;;;;;;5014943;28;20211;-51
2023/07/11 09:14:24;;;;;;;7.15;1.58;;;24.70;99.90;;;;;;4994804;28;20269;-51
2023/07/11 09:16:54;;;;;;;3.05;1.80;;;24.80;99.90;;;;;;5019349;28;20192;-57
2023/07/11 09:19:29;;;;;;;4.00;1.77;;;24.80;99.90;;;;;;5000821;28;20289;-57
2023/07/11 09:22:04;;;;;;;2.00;1.35;;;24.90;99.90;;;;;;5018473;28;20619;-58
2023/07/11 09:24:39;;;;;;;4.43;1.77;;;24.90;99.90;;;;;;5015566;28;20211;-59
2023/07/11 09:27:19;;;;;;;2.53;1.80;;;24.90;99.90;;;;;;5015132;28;20281;-52
2023/07/11 09:29:47;;;;;;;2.50;1.55;;;25.00;98.90;;;;;;4994627;28;20224;-54
2023/07/11 09:32:14;;;;;;;2.20;1.45;;;25.10;98.40;;;;;;5007617;28;20206;-50
2023/07/11 09:34:45;;;;;;;2.85;1.90;;;25.10;97.80;;;;;;5018122;28;20292;-52
2023/07/11 09:37:19;;;;;;;2.10;1.58;;;25.20;97.70;;;;;;5012560;28;20273;-50
2023/07/11 09:39:53;;;;;;;2.53;1.77;;;25.30;98.10;;;;;;5012748;28;20199;-57
2023/07/11 09:42:30;;;;;;;2.00;1.42;;;25.50;98.00;;;;;;5005722;28;20223;-55
2023/07/11 09:45:01;;;;;;;4.25;1.80;;;25.50;97.90;;;;;;5001904;28;20585;-54
2023/07/11 09:47:30;;;;;;;2.83;1.52;;;25.60;97.40;;;;;;5018325;28;20826;-55
2023/07/11 09:50:01;;;;;;;2.22;1.70;;;25.60;97.00;;;;;;5012848;28;20204;-52
2023/07/11 09:52:31;;;;;;;2.88;1.85;;;;;;;;;;5011455;28;20273;-54
2023/07/11 09:54:58;;;;;;;3.00;1.65;;;;;;;;;;5007085;28;20226;-50
2023/07/11 09:57:25;;;;;;;2.80;1.50;;;;;;;;;;5009004;28;20896;-54
2023/07/11 09:59:54;;;;;;;1.98;1.50;;;;;;;;;;4997395;28;20283;-51
2023/07/11 10:02:22;;;;;;;3.85;1.60;;;;;;;;;;5017606;28;20192;-56
2023/07/11 10:04:51;;;;;;;2.08;1.50;;;;;;;;;;5012229;28;20297;-50
2023/07/11 10:07:23;;;;;;;3.13;1.50;;;;;;;;;;5011685;28;20192;-55
2023/07/11 10:09:51;;;;;;;5.85;1.40;;;;;;;;;;5016351;28;20655;-51
2023/07/11 10:12:22;;;;;;;1.80;1.40;;;;;;;;;;5017779;28;21297;-58
2023/07/11 10:14:57;;;;;;;1.88;1.30;;;;;;;;;;5018639;28;20219;-52
2023/07/11 10:17:28;;;;;;;1.20;1.08;;;;;;;;;;5011820;28;20792;-52
2023/07/11 10:19:59;;;;;;;2.70;1.52;;;;;;;;;;5003582;28;20325;-57
2023/07/11 10:22:31;;;;;;;4.32;1.23;;;;;;;;;;5021481;28;20200;-58
2023/07/11 10:25:03;;;;;;;2.03;1.10;;;;;;;;;;5009305;28;20313;-51
2023/07/11 10:27:33;;;;;;;3.22;1.50;;;;;;;;;;5021896;28;20356;-57
2023/07/11 10:30:03;;;;;;;2.50;1.73;;;;;;;;;;5008092;28;20185;-53
2023/07/11 10:32:35;;;;;;;4.20;1.63;;;;;;;;;;5004892;28;20208;-52
2023/07/11 10:35:06;;;;;;;2.95;1.33;;;;;;;;;;5012985;28;20281;-53
2023/07/11 10:37:40;;;;;;;1.52;1.25;;;;;;;;;;5021489;28;20226;-56
2023/07/11 10:40:13;;;;;;;2.53;1.60;;;;;;;;;;5019240;28;20200;-52
2023/07/11 10:42:45;;;;;;;4.13;1.00;;;;;;;;;;5010703;28;20671;-50
2023/07/11 10:45:17;;;;;;;2.03;1.40;;;;;;;;;;5009328;28;20975;-52
2023/07/11 10:47:57;;;;;;;1.63;1.25;;;;;;;;;;4998214;28;20223;-54
2023/07/11 10:50:29;;;;;;;1.90;1.23;;;;;;;;;;5018673;28;20246;-49
2023/07/11 10:52:59;;;;;;;1.33;1.20;;;;;;;;;;5018438;28;20835;-50
2023/07/11 10:55:32;;;;;;;1.92;1.42;;;;;;;;;;5004193;28;20308;-48
2023/07/11 10:58:01;;;;;;;2.80;1.48;;;;;;;;;;5015697;28;20270;-52
2023/07/11 11:00:33;;;;;;;3.55;1.30;;;;;;;;;;5007191;28;20203;-47
2023/07/11 11:03:06;;;;;;;2.85;1.67;;;;;;;;;;4990217;28;20840;-51
2023/07/11 11:05:53;;;;;;;1.40;1.30;;;27.10;85.00;;;;;;5014656;28;20254;-54
2023/07/11 11:08:28;;;;;;;1.88;1.77;;;27.10;85.00;;;;;;5013385;28;20206;-47
2023/07/11 11:11:03;;;;;;;1.77;1.52;;;27.20;85.40;;;;;;5011439;28;20283;-45
2023/07/11 11:13:39;;;;;;;2.28;1.70;;;27.30;84.60;;;;;;5016313;28;20206;-55
2023/07/11 11:16:17;;;;;;;2.67;1.80;;;27.40;85.20;;;;;;5007438;28;20212;-51
2023/07/11 11:18:51;;;;;;;2.53;1.65;;;;;;;;;;4994021;28;20207;-49
2023/07/11 11:21:22;;;;;;;1.63;1.45;;;;;;;;;;5023173;28;20748;-48
2023/07/11 11:24:01;;;;;;;1.50;1.20;;;;;;;;;;5006750;28;20207;-54
2023/07/11 11:26:34;;;;;;;2.92;1.63;;;;;;;;;;5016161;28;20634;-54
2023/07/11 11:29:06;;;;;;;3.40;1.45;;;;;;;;;;5014947;28;20977;-52
2023/07/11 11:31:33;;;;;;;6.60;1.60;;;;;;;;;;5014160;28;20538;-55
2023/07/11 11:34:14;;;;;;;3.72;1.65;;;;;;;;;;4995352;28;20385;-52
2023/07/11 11:36:47;;;;;;;4.95;2.17;;;;;;;;;;5015215;28;20220;-54
2023/07/11 11:39:26;;;;;;;2.15;1.70;;;28.20;99.90;;;;;;5012958;28;20227;-47
2023/07/11 11:41:57;;;;;;;2.42;1.90;;;;;;;;;;5005925;28;20218;-47
2023/07/11 11:44:37;;;;;;;2.80;1.17;;;;;;;;;;5014584;28;20228;-48
2023/07/11 11:47:04;;;;;;;2.00;1.60;;;;;;;;;;5016348;28;20207;-46
2023/07/11 11:49:32;;;;;;;1.85;1.65;;;;;;;;;;4998445;28;20259;-54
2023/07/11 11:52:00;;;;;;;2.88;1.60;;;;;;;;;;5019281;28;20218;-52
2023/07/11 11:54:35;;;;;;;3.30;1.60;;;;;;;;;;5010873;28;20227;-56
2023/07/11 11:57:03;;;;;;;2.58;1.83;;;;;;;;;;5011247;28;20330;-47
2023/07/11 11:59:31;;;;;;;2.03;1.85;;;;;;;;;;5016490;28;20196;-53
2023/07/11 12:02:01;;;;;;;4.22;1.83;;;;;;;;;;5020756;28;20223;-49
2023/07/11 12:04:49;;;;;;;3.72;1.83;;;;;;;;;;4998029;28;20646;-55
2023/07/11 12:07:25;;;;;;;2.00;1.70;;;;;;;;;;5011077;28;20238;-52
2023/07/11 12:10:08;;;;;;;2.22;1.60;;;;;;;;;;5020533;28;20207;-52
2023/07/11 12:12:50;;;;;;;2.33;2.10;;;;;;;;;;5005619;28;20597;-53
2023/07/11 12:15:21;;;;;;;4.25;2.20;;;;;;;;;;5024306;28;20669;-49
2023/07/11 12:17:49;;;;;;;2.50;2.35;;;;;;;;;;5011460;28;20250;-46
2023/07/11 12:20:21;;;;;;;2.75;1.90;;;;;;;;;;5000749;28;20200;-46
2023/07/11 12:23:17;;;;;;;3.90;2.10;;;28.80;78.70;;;;;;5018370;28;20555;-49
2023/07/11 12:26:10;;;;;;;3.13;1.90;;;28.70;78.50;;;;;;5016343;28;20216;-53
2023/07/11 12:28:37;;;;;;;4.28;2.45;;;28.70;79.50;;;;;;5005263;28;20214;-55
2023/07/11 12:31:16;;;;;;;4.82;2.45;;;28.70;80.60;;;;;;5011657;28;20686;-54
2023/07/11 12:33:43;;;;;;;3.35;2.30;;;28.80;80.50;;;;;;5020576;28;20590;-46
2023/07/11 12:36:44;;;;;;;3.88;2.20;;;28.80;78.80;;;;;;4998115;28;20220;-54
2023/07/11 12:39:22;;;;;;;4.88;2.45;;;28.80;77.50;;;;;;5010707;28;20219;-55
2023/07/11 12:41:59;;;;;;;3.00;2.45;;;28.80;77.40;;;;;;5014667;28;20200;-51
2023/07/11 12:44:30;;;;;;;3.67;2.15;;;28.90;75.90;;;;;;5006660;28;20364;-50
2023/07/11 12:46:57;;;;;;;5.13;2.30;;;28.90;76.70;;;;;;5020500;28;20650;-53
2023/07/11 12:49:26;;;;;;;4.03;2.40;;;29.00;77.00;;;;;;5017897;28;20204;-49
2023/07/11 12:52:03;;;;;;;2.95;2.30;;;29.00;76.20;;;;;;4991075;28;20212;-54
2023/07/11 12:54:30;;;;;;;3.30;2.35;;;29.10;77.00;;;;;;5017250;28;20433;-48
2023/07/11 12:56:58;;;;;;;2.33;2.20;;;29.40;77.20;;;;;;5020210;28;20277;-53
2023/07/11 12:59:27;;;;;;;3.17;2.45;;;29.60;76.20;;;;;;5012348;28;20208;-53
2023/07/11 13:01:57;;;;;;;2.85;2.30;;;29.70;75.00;;;;;;5015591;28;20205;-51
2023/07/11 13:04:34;;;;;;;2.95;2.40;;;29.60;72.60;;;;;;5013705;28;21012;-54
2023/07/11 13:07:01;;;;;;;3.58;2.40;;;29.70;71.50;;;;;;4998377;28;20206;-52
2023/07/11 13:09:28;;;;;;;3.40;2.50;;;29.80;71.00;;;;;;5013861;28;20196;-50
2023/07/11 13:11:55;;;;;;;3.13;2.45;;;30.00;71.20;;;;;;5021646;28;20212;-49
2023/07/11 13:14:23;;;;;;;6.72;2.67;;;30.00;70.90;;;;;;5005890;28;20362;-50
2023/07/11 13:16:51;;;;;;;3.28;2.28;;;30.00;70.90;;;;;;5002681;28;20212;-54